Terminal Aerodrome Forecast
Issued by NWS

Home | Current Version | Previous Version | Text Only | Print | Product List | Glossary On
Versions: 1 2 3 4 5 6 7 8 9 10 11 12 13 14 15 16
000
FTUS43 KFGF 021700
TAFBJI
TAF
KBJI 021730Z 0218/0318 22009KT P6SM -SHRA BKN070
      TEMPO 0218/0221 P6SM NSW
     FM022100 24012G20KT P6SM VCSH BKN080
     FM030100 21006KT P6SM SKC
     FM031300 13005KT P6SM SCT250=

USA.gov is the U.S. government's official web portal to all federal, state and local government web resources and services.